This is the latest recevied weather packets stored in our database for station/object KO6LQJ. If no packets are shown the sender has not sent any weather packets the latest 1 day(s).
| Time | Temp. | Humidity | Pressure | Rain* | Wind** | Luminosity | Snow |
|---|---|---|---|---|---|---|---|
| 1778086182 | 20° C | 52% | 1020.3 hPa | 0 mm | - | 710 W/m² | - |
| 1778085879 | 20° C | 52% | 1020.3 hPa | 0 mm | - | 660 W/m² | - |
| 1778085577 | 20.56° C | 51% | 1020.2 hPa | 0 mm | - | 647 W/m² | - |
| 1778084362 | 19.44° C | 54% | 1020.2 hPa | 0 mm | - | 561 W/m² | - |
| 1778083757 | 19.44° C | 54% | 1020.6 hPa | 0 mm | - | 498 W/m² | - |
| 1778083152 | 18.33° C | 59% | 1020.3 hPa | 0 mm | - | 434 W/m² | - |
| 1778082849 | 18.89° C | 57% | 1020.5 hPa | 0 mm | - | 104 W/m² | - |
| 1778081423 | 18.33° C | 57% | 1020.3 hPa | 0 mm | - | 274 W/m² | - |
| 1778080818 | 17.78° C | 59% | 1020.1 hPa | 0 mm | - | 269 W/m² | - |
| 1778080515 | 17.78° C | 58% | 1020.3 hPa | 0 mm | - | 248 W/m² | - |
| 1778078696 | 16.67° C | 59% | 1020.4 hPa | 0 mm | - | 164 W/m² | - |
| 1778078091 | 15.56° C | 62% | 1020.5 hPa | 0 mm | - | 134 W/m² | - |
| 1778076581 | 13.89° C | 67% | 1020.3 hPa | 0 mm | - | 62 W/m² | - |
| 1778076277 | 13.89° C | 70% | 1020.5 hPa | 0 mm | - | 53 W/m² | - |
| 1778075974 | 12.78° C | 72% | 1020.3 hPa | 0 mm | - | 46 W/m² | - |
| 1778074154 | 10° C | 78% | 1020 hPa | 0 mm | - | 11 W/m² | - |
| 1778073245 | 10° C | 77% | 1020.1 hPa | 0 mm | - | 5 W/m² | - |
| 1778072337 | 10° C | 77% | 1019.6 hPa | 0 mm | - | 0 W/m² | - |
| 1778072035 | 10° C | 77% | 1019.5 hPa | 0 mm | - | 0 W/m² | - |
| 1778071733 | 10.56° C | 77% | 1019.5 hPa | 0 mm | - | 0 W/m² | - |
| 1778068706 | 10.56° C | 76% | 1019.5 hPa | 0 mm | - | 0 W/m² | - |
| 1778068102 | 10.56° C | 76% | 1019.3 hPa | 0 mm | - | 0 W/m² | - |
| 1778067498 | 10.56° C | 76% | 1019.4 hPa | 0 mm | - | 0 W/m² | - |
| 1778067195 | 10.56° C | 76% | 1019.1 hPa | 0 mm | - | 0 W/m² | - |
| 1778066589 | 10.56° C | 76% | 1019 hPa | 0 mm | - | 0 W/m² | - |
* Rain latest hour (hover to see other rain measurements)
** Current wind speed in m/s (hover to see current wind gust speed)